Terminal Aerodrome Forecast
Issued by NWS

Home | Current Version | Previous Version | Text Only | Print | Product List | Glossary On
Versions: 1 2 3 4 5 6 7 8 9 10 11 12 13 14 15 16 17
000
FTUS46 KLOX 022326
TAFPRB
TAF
KPRB 022326Z 0300/0324 21015G24KT P6SM SCT250
     FM030200 20012KT P6SM SCT250
     FM030500 31007KT P6SM SKC
     FM030700 33005KT P6SM SKC
     FM031100 VRB03KT P6SM BKN006
     FM031700 VRB03KT P6SM SKC
     FM032000 26007KT P6SM SKC
     FM032200 21015G22KT P6SM SKC=

USA.gov is the U.S. government's official web portal to all federal, state and local government web resources and services.